createdAt,value
2023-03-21T00:00:04.117Z,12.77
2023-03-21T00:03:07.491Z,11.35
2023-03-21T00:06:12.781Z,12.07
2023-03-21T00:09:15.674Z,11.15
2023-03-21T00:12:20.944Z,11.52
2023-03-21T00:18:52.424Z,9.57
2023-03-21T00:22:07.094Z,11.07
2023-03-21T00:25:11.698Z,12.32
2023-03-21T00:28:14.440Z,11.15
2023-03-21T00:31:19.576Z,10.53
2023-03-21T00:34:31.739Z,10.90
2023-03-21T00:41:18.820Z,10.48
2023-03-21T00:44:26.280Z,12.07
2023-03-21T00:47:30.567Z,10.83
2023-03-21T00:50:34.518Z,12.40
2023-03-21T00:53:37.215Z,12.30
2023-03-21T00:56:40.067Z,11.23
2023-03-21T00:59:42.771Z,11.70
2023-03-21T01:03:14.035Z,12.37
2023-03-21T01:06:20.369Z,15.13
2023-03-21T01:09:25.723Z,13.75
2023-03-21T01:12:28.572Z,14.05
2023-03-21T01:15:31.443Z,13.23
2023-03-21T01:18:38.319Z,12.67
2023-03-21T01:21:41.541Z,15.55
2023-03-21T01:24:53.814Z,14.90
2023-03-21T01:27:57.970Z,14.13
2023-03-21T01:31:03.802Z,15.43
2023-03-21T01:34:07.951Z,16.20
2023-03-21T01:37:10.875Z,15.23
2023-03-21T01:40:17.523Z,14.80
2023-03-21T01:43:24.680Z,16.38
2023-03-21T01:46:47.869Z,17.38
2023-03-21T01:50:02.944Z,14.93
2023-03-21T01:53:06.407Z,13.63
2023-03-21T01:56:15.001Z,14.85
2023-03-21T01:59:22.558Z,14.55
2023-03-21T02:02:28.857Z,15.93
2023-03-21T02:05:39.644Z,17.20
2023-03-21T02:08:42.909Z,17.95
2023-03-21T02:11:47.457Z,18.75
2023-03-21T02:14:51.727Z,19.63
2023-03-21T02:18:00.591Z,17.85
2023-03-21T02:21:35.824Z,19.50
2023-03-21T02:25:08.343Z,21.13
2023-03-21T02:28:21.048Z,19.70
2023-03-21T02:31:35.865Z,21.55
2023-03-21T02:34:53.985Z,19.42
2023-03-21T02:38:03.558Z,22.00
2023-03-21T02:41:19.018Z,23.25
2023-03-21T02:44:27.950Z,22.80
2023-03-21T02:47:35.944Z,22.40
2023-03-21T02:50:44.729Z,26.10
2023-03-21T02:54:13.007Z,23.87
2023-03-21T02:57:16.491Z,23.20
2023-03-21T03:00:23.169Z,24.40
2023-03-21T03:03:34.119Z,26.25
2023-03-21T03:06:49.189Z,27.52
2023-03-21T03:10:08.844Z,23.53
2023-03-21T03:13:22.861Z,27.23
2023-03-21T03:16:31.441Z,26.88
2023-03-21T03:19:49.416Z,25.67
2023-03-21T03:22:59.909Z,25.67
2023-03-21T03:26:09.662Z,29.13
2023-03-21T03:29:16.570Z,25.77
2023-03-21T03:32:23.754Z,23.27
2023-03-21T03:35:27.940Z,29.35
2023-03-21T03:38:32.782Z,24.45
2023-03-21T03:42:06.107Z,24.70
2023-03-21T03:45:07.770Z,24.52
2023-03-21T03:48:17.558Z,24.00
2023-03-21T03:51:24.985Z,24.65
2023-03-21T03:54:32.712Z,25.77
2023-03-21T03:57:37.748Z,24.80
2023-03-21T04:00:41.088Z,25.27
2023-03-21T04:07:07.799Z,21.77
2023-03-21T04:10:11.716Z,24.65
2023-03-21T04:13:15.970Z,24.27
2023-03-21T04:16:19.238Z,25.05
2023-03-21T04:19:22.191Z,25.85
2023-03-21T04:22:25.053Z,25.38
2023-03-21T04:25:34.000Z,23.40
2023-03-21T04:28:39.957Z,23.07
2023-03-21T04:31:42.693Z,22.52
2023-03-21T04:34:50.333Z,22.98
2023-03-21T04:37:53.154Z,24.42
2023-03-21T04:40:56.176Z,24.52
2023-03-21T04:44:00.354Z,23.83
2023-03-21T04:47:03.034Z,23.20
2023-03-21T04:50:06.975Z,24.98
2023-03-21T04:53:09.636Z,25.58
2023-03-21T04:56:12.762Z,23.17
2023-03-21T04:59:17.361Z,24.20
2023-03-21T05:02:20.139Z,25.33
2023-03-21T05:05:22.955Z,25.35
2023-03-21T05:08:26.071Z,24.08
2023-03-21T05:11:31.018Z,24.25
2023-03-21T05:14:35.291Z,24.67
2023-03-21T05:17:38.486Z,25.90
2023-03-21T05:20:43.656Z,22.48
2023-03-21T05:23:54.119Z,26.30
2023-03-21T05:27:02.691Z,24.67
2023-03-21T05:30:09.921Z,25.20
2023-03-21T05:33:13.410Z,24.90
2023-03-21T05:36:16.935Z,25.88
2023-03-21T05:39:20.835Z,28.00
2023-03-21T05:42:23.755Z,24.80
2023-03-21T05:45:29.207Z,25.07
2023-03-21T05:48:32.383Z,24.17
2023-03-21T05:51:35.513Z,23.02
2023-03-21T05:54:38.575Z,29.77
2023-03-21T05:57:41.446Z,25.63
2023-03-21T06:00:48.219Z,25.73
2023-03-21T06:03:51.781Z,25.27
2023-03-21T06:06:54.888Z,27.73
2023-03-21T06:09:58.659Z,26.10
2023-03-21T06:13:01.565Z,25.50
2023-03-21T06:16:06.313Z,27.40
2023-03-21T06:19:09.861Z,25.45
2023-03-21T06:22:12.676Z,26.58
2023-03-21T06:25:15.640Z,27.63
2023-03-21T06:28:18.447Z,27.88
2023-03-21T06:31:25.074Z,27.13
2023-03-21T06:34:28.977Z,29.20
2023-03-21T06:37:31.873Z,31.55
2023-03-21T06:40:34.804Z,26.98
2023-03-21T06:43:37.754Z,28.33
2023-03-21T06:46:42.340Z,26.63
2023-03-21T06:49:45.805Z,30.38
2023-03-21T06:52:49.625Z,28.67
2023-03-21T06:55:52.910Z,27.98
2023-03-21T06:58:57.192Z,26.88
2023-03-21T07:02:01.379Z,26.93
2023-03-21T07:05:04.470Z,28.45
2023-03-21T07:08:10.173Z,28.23
2023-03-21T07:11:13.123Z,28.60
2023-03-21T07:14:15.911Z,29.48
2023-03-21T07:17:20.472Z,29.90
2023-03-21T07:20:23.638Z,28.40
2023-03-21T07:23:27.421Z,27.50
2023-03-21T07:26:30.191Z,28.77
2023-03-21T07:29:33.288Z,28.48
2023-03-21T07:32:37.895Z,30.23
2023-03-21T07:35:41.849Z,28.50
2023-03-21T07:38:45.755Z,29.08
2023-03-21T07:41:49.730Z,31.27
2023-03-21T07:44:54.933Z,26.52
2023-03-21T07:47:59.092Z,26.93
2023-03-21T07:51:02.264Z,31.75
2023-03-21T07:54:05.527Z,27.77
2023-03-21T07:57:08.468Z,28.08
2023-03-21T08:00:12.567Z,30.10
2023-03-21T08:03:16.906Z,29.47
2023-03-21T08:06:19.642Z,29.98
2023-03-21T08:09:22.451Z,29.10
2023-03-21T08:12:25.400Z,30.00
2023-03-21T08:15:28.158Z,29.67
2023-03-21T08:18:32.456Z,28.70
2023-03-21T08:21:35.217Z,31.35
2023-03-21T08:24:38.061Z,28.52
2023-03-21T08:27:41.814Z,30.33
2023-03-21T08:30:44.544Z,28.13
2023-03-21T08:33:51.048Z,25.07
2023-03-21T08:36:54.487Z,27.23
2023-03-21T08:39:57.486Z,32.15
2023-03-21T08:43:00.837Z,25.70
2023-03-21T08:46:04.470Z,27.33
2023-03-21T08:49:08.614Z,27.87
2023-03-21T08:52:11.285Z,26.05
2023-03-21T08:55:14.928Z,28.05
2023-03-21T08:58:18.444Z,26.40
2023-03-21T09:01:21.247Z,28.48
2023-03-21T09:04:27.220Z,30.43
2023-03-21T09:07:33.888Z,27.73
2023-03-21T09:10:36.769Z,28.05
2023-03-21T09:13:39.655Z,26.80
2023-03-21T09:16:42.409Z,28.55
2023-03-21T09:19:47.471Z,25.33
2023-03-21T09:22:51.914Z,24.38
2023-03-21T09:25:54.834Z,22.58
2023-03-21T09:28:58.775Z,25.52
2023-03-21T09:32:01.660Z,26.17
2023-03-21T09:35:07.873Z,22.70
2023-03-21T09:38:10.664Z,23.98
2023-03-21T09:41:28.457Z,22.63
2023-03-21T09:44:44.983Z,24.92
2023-03-21T09:47:53.945Z,23.33
2023-03-21T09:50:58.801Z,25.50
2023-03-21T09:54:07.233Z,29.13
2023-03-21T09:57:19.816Z,47.28
2023-03-21T10:00:29.520Z,24.70
2023-03-21T10:03:35.625Z,25.05
2023-03-21T10:06:42.871Z,27.70
2023-03-21T10:09:47.252Z,43.25
2023-03-21T10:12:53.825Z,29.17
2023-03-21T10:15:58.719Z,30.67
2023-03-21T10:19:07.359Z,25.50
2023-03-21T10:22:11.602Z,25.77
2023-03-21T10:25:18.812Z,29.02
2023-03-21T10:28:23.870Z,29.35
2023-03-21T10:31:29.933Z,25.52
2023-03-21T10:34:36.844Z,24.58
2023-03-21T10:37:41.127Z,25.83
2023-03-21T10:40:43.988Z,24.30
2023-03-21T10:43:48.554Z,24.27
2023-03-21T10:46:53.667Z,24.63
2023-03-21T10:50:12.246Z,26.05
2023-03-21T10:53:21.697Z,24.27
2023-03-21T10:56:27.754Z,24.70
2023-03-21T10:59:38.910Z,28.90
2023-03-21T11:02:43.107Z,25.42
2023-03-21T11:05:46.383Z,20.90
2023-03-21T11:08:55.330Z,23.93
2023-03-21T11:12:05.822Z,19.30
2023-03-21T11:15:30.175Z,22.75
2023-03-21T11:18:33.315Z,19.67
2023-03-21T11:21:38.094Z,19.25
2023-03-21T11:24:47.216Z,17.27
2023-03-21T11:27:52.757Z,18.83
2023-03-21T11:30:57.839Z,19.73
2023-03-21T11:34:01.620Z,17.40
2023-03-21T11:37:04.515Z,16.00
2023-03-21T11:40:21.159Z,17.07
2023-03-21T11:43:29.378Z,17.25
2023-03-21T11:46:41.036Z,13.35
2023-03-21T11:49:43.778Z,17.45
2023-03-21T11:52:57.004Z,18.50
2023-03-21T11:56:12.264Z,17.57
2023-03-21T11:59:35.402Z,16.83
2023-03-21T12:03:05.200Z,18.00
2023-03-21T12:06:17.019Z,14.68
2023-03-21T12:09:30.484Z,17.88
2023-03-21T12:12:45.834Z,14.80
2023-03-21T12:15:56.970Z,15.80
2023-03-21T12:19:30.338Z,14.20
2023-03-21T12:22:40.472Z,16.73
2023-03-21T12:25:48.044Z,19.55
2023-03-21T12:29:07.479Z,12.77
2023-03-21T12:32:28.467Z,15.68
2023-03-21T12:35:45.944Z,15.15
2023-03-21T12:38:59.749Z,17.35
2023-03-21T12:42:27.496Z,15.13
2023-03-21T12:45:46.182Z,17.07
2023-03-21T12:48:52.874Z,16.50
2023-03-21T12:52:01.311Z,12.50
2023-03-21T12:55:14.949Z,13.52
2023-03-21T12:58:22.774Z,14.57
2023-03-21T13:01:29.657Z,15.67
2023-03-21T13:04:47.202Z,14.63
2023-03-21T13:07:54.870Z,12.43
2023-03-21T13:11:01.140Z,14.55
2023-03-21T13:14:08.692Z,12.38
2023-03-21T13:17:20.567Z,12.90
2023-03-21T13:20:30.765Z,11.45
2023-03-21T13:23:39.045Z,14.32
2023-03-21T13:26:46.153Z,11.77
2023-03-21T13:29:51.909Z,12.60
2023-03-21T13:33:07.004Z,14.10
2023-03-21T13:36:11.013Z,11.27
2023-03-21T13:39:20.913Z,15.30
2023-03-21T13:42:31.741Z,12.65
2023-03-21T13:45:47.244Z,11.70
2023-03-21T13:49:00.652Z,14.77
2023-03-21T13:52:24.764Z,15.13
2023-03-21T13:55:29.389Z,13.82
2023-03-21T13:58:38.703Z,12.77
2023-03-21T14:01:42.766Z,12.68
2023-03-21T14:05:04.195Z,13.33
2023-03-21T14:08:15.742Z,12.95
2023-03-21T14:11:23.841Z,13.68
2023-03-21T14:14:33.684Z,14.32
2023-03-21T14:17:36.902Z,14.43
2023-03-21T14:20:42.258Z,13.17
2023-03-21T14:23:45.226Z,13.82
2023-03-21T14:26:50.338Z,12.00
2023-03-21T14:29:53.356Z,11.95
2023-03-21T14:32:59.039Z,13.98
2023-03-21T14:36:08.809Z,11.83
2023-03-21T14:39:16.734Z,12.82
2023-03-21T14:42:20.800Z,14.10
2023-03-21T14:45:25.872Z,15.05
2023-03-21T14:48:32.029Z,11.75
2023-03-21T14:51:36.112Z,12.73
2023-03-21T14:54:41.362Z,11.77
2023-03-21T14:57:44.188Z,12.52
2023-03-21T15:00:49.787Z,11.43
2023-03-21T15:03:53.168Z,11.40
2023-03-21T15:06:59.179Z,12.00
2023-03-21T15:10:04.995Z,12.05
2023-03-21T15:13:17.131Z,11.70
2023-03-21T15:16:21.021Z,12.52
2023-03-21T15:19:30.004Z,13.90
2023-03-21T15:22:39.415Z,10.37
2023-03-21T15:25:43.084Z,10.80
2023-03-21T15:28:47.218Z,10.43
2023-03-21T15:31:50.058Z,12.00
2023-03-21T15:34:56.656Z,11.48
2023-03-21T15:38:01.084Z,13.13
2023-03-21T15:41:18.408Z,11.18
2023-03-21T15:44:23.381Z,11.95
2023-03-21T15:47:44.116Z,11.23
2023-03-21T15:50:53.357Z,11.13
2023-03-21T15:53:57.457Z,9.20
2023-03-21T15:57:04.793Z,12.43
2023-03-21T16:00:19.876Z,11.57
2023-03-21T16:03:25.820Z,11.27
2023-03-21T16:06:33.645Z,9.05
2023-03-21T16:09:44.629Z,9.67
2023-03-21T16:12:47.381Z,12.50
2023-03-21T16:15:50.412Z,9.50
2023-03-21T16:18:53.973Z,10.63
2023-03-21T16:21:56.959Z,9.30
2023-03-21T16:25:01.310Z,8.93
2023-03-21T16:28:04.213Z,8.45
2023-03-21T16:31:07.317Z,9.52
2023-03-21T16:34:10.744Z,10.60
2023-03-21T16:37:15.869Z,9.40
2023-03-21T16:40:27.550Z,8.60
2023-03-21T16:43:30.440Z,13.50
2023-03-21T16:46:33.191Z,13.70
2023-03-21T16:49:37.473Z,11.57
2023-03-21T16:52:40.208Z,11.90
2023-03-21T16:55:44.514Z,8.57
2023-03-21T16:58:50.088Z,11.98
2023-03-21T17:01:52.853Z,12.05
2023-03-21T17:04:55.699Z,16.20
2023-03-21T17:08:01.978Z,14.35
2023-03-21T17:11:06.494Z,10.23
2023-03-21T17:14:10.763Z,13.93
2023-03-21T17:17:14.248Z,12.95
2023-03-21T17:20:21.479Z,12.05
2023-03-21T17:23:24.246Z,12.55
2023-03-21T17:26:30.563Z,12.00
2023-03-21T17:29:33.431Z,13.47
2023-03-21T17:32:36.105Z,11.27
2023-03-21T17:35:39.382Z,11.23
2023-03-21T17:38:42.380Z,10.80
2023-03-21T17:41:46.483Z,11.07
2023-03-21T17:44:49.273Z,11.25
2023-03-21T17:47:52.622Z,12.20
2023-03-21T17:50:56.697Z,12.27
2023-03-21T17:53:59.544Z,12.13
2023-03-21T17:57:03.732Z,12.15
2023-03-21T18:00:12.251Z,14.82
2023-03-21T18:03:16.320Z,15.23
2023-03-21T18:06:22.038Z,13.63
2023-03-21T18:09:24.850Z,13.97
2023-03-21T18:12:29.039Z,13.88
2023-03-21T18:15:31.882Z,14.50
2023-03-21T18:18:35.278Z,13.88
2023-03-21T18:21:40.654Z,18.10
2023-03-21T18:24:43.416Z,15.93
2023-03-21T18:28:09.596Z,16.20
2023-03-21T18:31:19.078Z,15.95
2023-03-21T18:34:22.414Z,15.18
2023-03-21T18:37:25.483Z,15.32
2023-03-21T18:40:28.199Z,15.63
2023-03-21T18:46:55.458Z,15.77
2023-03-21T18:50:13.032Z,14.65
2023-03-21T18:53:16.441Z,17.08
2023-03-21T18:57:06.126Z,18.20
2023-03-21T18:59:44.704Z,17.05
2023-03-21T19:02:50.832Z,20.65
2023-03-21T19:05:59.102Z,22.17
2023-03-21T19:09:02.153Z,18.85
2023-03-21T19:12:05.105Z,19.03
2023-03-21T19:15:11.839Z,18.30
2023-03-21T19:21:37.472Z,17.73
2023-03-21T19:24:41.363Z,18.55
2023-03-21T19:27:44.628Z,18.80
2023-03-21T19:30:50.569Z,19.15
2023-03-21T19:33:54.040Z,19.42
2023-03-21T19:36:57.360Z,19.45
2023-03-21T19:40:00.322Z,19.75
2023-03-21T19:43:21.505Z,19.27
2023-03-21T19:46:27.383Z,18.35
2023-03-21T19:49:52.088Z,20.27
2023-03-21T19:52:53.802Z,19.20
2023-03-21T19:55:56.661Z,18.15
2023-03-21T19:58:59.839Z,19.77
2023-03-21T20:02:25.557Z,19.70
2023-03-21T20:05:27.344Z,21.13
2023-03-21T20:08:48.764Z,22.35
2023-03-21T20:11:54.688Z,22.75
2023-03-21T20:15:10.400Z,21.27
2023-03-21T20:18:24.079Z,21.42
2023-03-21T20:21:32.444Z,22.52
2023-03-21T20:24:38.736Z,22.20
2023-03-21T20:27:42.558Z,21.55
2023-03-21T20:30:47.296Z,21.60
2023-03-21T20:33:52.309Z,23.48
2023-03-21T20:36:55.195Z,21.08
2023-03-21T20:39:57.911Z,20.90
2023-03-21T20:43:28.499Z,20.92
2023-03-21T20:46:24.823Z,20.80
2023-03-21T20:49:29.560Z,21.85
2023-03-21T20:55:55.124Z,23.60
2023-03-21T20:59:12.252Z,25.67
2023-03-21T21:02:20.695Z,21.63
2023-03-21T21:05:30.688Z,23.98
2023-03-21T21:08:35.745Z,23.25
2023-03-21T21:15:01.902Z,24.47
2023-03-21T21:18:07.390Z,26.23
2023-03-21T21:21:13.920Z,24.08
2023-03-21T21:24:16.984Z,26.08
2023-03-21T21:27:19.788Z,26.35
2023-03-21T21:30:22.817Z,25.10
2023-03-21T21:33:29.156Z,30.27
2023-03-21T21:36:33.214Z,27.70
2023-03-21T21:39:37.931Z,26.55
2023-03-21T21:42:42.473Z,27.38
2023-03-21T21:45:45.676Z,25.50
2023-03-21T21:48:49.829Z,27.40
2023-03-21T21:51:54.200Z,25.17
2023-03-21T21:54:57.308Z,23.95
2023-03-21T21:58:00.994Z,27.85
2023-03-21T22:01:03.718Z,27.60
2023-03-21T22:04:08.711Z,25.93
2023-03-21T22:07:14.540Z,25.13
2023-03-21T22:10:17.588Z,27.67
2023-03-21T22:13:20.346Z,25.80
2023-03-21T22:16:23.264Z,25.60
2023-03-21T22:19:26.272Z,24.60
2023-03-21T22:22:30.941Z,25.10
2023-03-21T22:25:34.102Z,24.42
2023-03-21T22:28:40.501Z,25.38
2023-03-21T22:31:44.609Z,26.50
2023-03-21T22:34:47.564Z,25.53
2023-03-21T22:37:51.666Z,26.52
2023-03-21T22:40:55.756Z,24.52
2023-03-21T22:43:58.649Z,28.83
2023-03-21T22:47:02.044Z,26.10
2023-03-21T22:50:05.800Z,25.00
2023-03-21T22:53:10.382Z,26.10
2023-03-21T22:56:13.276Z,25.60
2023-03-21T22:59:16.028Z,24.30
2023-03-21T23:02:18.980Z,25.90
2023-03-21T23:05:21.781Z,25.00
2023-03-21T23:08:27.343Z,24.48
2023-03-21T23:11:30.215Z,24.80
2023-03-21T23:14:33.063Z,24.20
2023-03-21T23:17:36.136Z,25.10
2023-03-21T23:20:39.275Z,23.73
2023-03-21T23:23:50.096Z,22.97
2023-03-21T23:26:53.057Z,21.67
2023-03-21T23:29:56.839Z,23.40
2023-03-21T23:33:03.041Z,21.02
2023-03-21T23:36:06.809Z,25.50
2023-03-21T23:39:11.133Z,22.10
2023-03-21T23:42:13.829Z,20.98
2023-03-21T23:45:16.769Z,20.95
2023-03-21T23:48:19.552Z,22.88
2023-03-21T23:51:22.526Z,21.40
2023-03-21T23:54:26.762Z,20.00
2023-03-21T23:57:30.562Z,17.10
